Time;durP1;ratioP1;P1;durP2;ratioP2;P2;SDS_P1;SDS_P2;PMS_P1;PMS_P2;Temp;Humidity;BMP_temperature;BMP_pressure;BME280_temperature;BME280_humidity;BME280_pressure;Samples;Min_cycle;Max_cycle;Signal;HPM_P1;HPM_P2
2023/05/23 00:02:12;;;;;;;9.70;1.67;;;38.10;25.60;;;;;;4887991;29;20557;-67
2023/05/23 00:04:38;;;;;;;15.20;2.00;;;38.10;25.60;;;;;;4887836;29;20116;-66
2023/05/23 00:07:05;;;;;;;7.30;1.60;;;38.00;25.40;;;;;;4890133;29;20080;-67
2023/05/23 00:09:31;;;;;;;22.17;2.92;;;37.90;25.50;;;;;;4890786;29;20040;-68
2023/05/23 00:11:58;;;;;;;8.20;1.60;;;37.90;26.20;;;;;;4890415;29;20028;-67
2023/05/23 00:14:24;;;;;;;7.22;1.80;;;37.90;25.50;;;;;;4887603;29;20037;-65
2023/05/23 00:16:51;;;;;;;5.05;1.60;;;37.80;25.70;;;;;;4886872;29;20025;-68
2023/05/23 00:19:17;;;;;;;11.13;1.70;;;37.70;25.70;;;;;;4890096;29;20021;-68
2023/05/23 00:21:49;;;;;;;17.45;1.75;;;37.70;26.80;;;;;;4888626;29;20050;-69
2023/05/23 00:24:19;;;;;;;10.32;1.85;;;37.70;25.70;;;;;;4889449;29;20073;-66
2023/05/23 00:26:46;;;;;;;16.02;1.63;;;37.60;25.80;;;;;;4887266;29;20029;-68
2023/05/23 00:29:15;;;;;;;13.45;2.17;;;37.50;25.80;;;;;;4888804;29;20040;-67
2023/05/23 00:31:46;;;;;;;9.65;1.60;;;37.50;26.00;;;;;;4887248;29;20033;-67
2023/05/23 00:34:18;;;;;;;14.75;2.05;;;37.40;26.00;;;;;;4886081;29;20031;-66
2023/05/23 00:36:49;;;;;;;7.43;1.95;;;37.30;26.30;;;;;;4888886;29;20070;-65
2023/05/23 00:39:18;;;;;;;7.07;1.65;;;37.30;26.20;;;;;;4892328;29;20426;-67
2023/05/23 00:41:53;;;;;;;8.10;2.00;;;37.20;26.40;;;;;;4893322;29;20035;-65
2023/05/23 00:44:20;;;;;;;13.82;2.67;;;37.10;26.30;;;;;;4892221;29;20153;-71
2023/05/23 00:46:52;;;;;;;12.05;1.80;;;37.00;26.50;;;;;;4892451;29;20481;-66
2023/05/23 00:49:21;;;;;;;10.60;1.80;;;37.00;26.80;;;;;;4890294;29;20393;-65
2023/05/23 00:51:49;;;;;;;11.30;2.05;;;36.90;27.60;;;;;;4890428;29;20033;-66
2023/05/23 00:54:21;;;;;;;8.07;1.65;;;36.90;27.00;;;;;;4892409;29;20510;-66
2023/05/23 00:56:47;;;;;;;13.13;2.50;;;36.80;27.00;;;;;;4891467;29;20061;-65
2023/05/23 00:59:15;;;;;;;8.82;1.60;;;36.80;27.40;;;;;;4884377;29;20031;-66
2023/05/23 01:01:45;;;;;;;12.30;2.50;;;36.80;27.50;;;;;;4891772;29;20150;-67
2023/05/23 01:04:13;;;;;;;10.80;2.03;;;36.70;27.80;;;;;;4895039;29;20077;-66
2023/05/23 01:06:39;;;;;;;12.43;2.30;;;36.60;28.00;;;;;;4891583;29;20021;-65
2023/05/23 01:09:06;;;;;;;11.88;2.03;;;36.50;28.40;;;;;;4891994;29;20041;-66
2023/05/23 01:11:42;;;;;;;17.67;2.10;;;36.50;28.00;;;;;;4889820;29;20390;-66
2023/05/23 01:14:17;;;;;;;;;;;36.40;28.10;;;;;;4892582;29;20046;-66
2023/05/23 01:16:52;;;;;;;7.53;1.67;;;36.30;28.00;;;;;;4893263;29;19930;-65
2023/05/23 01:19:46;;;;;;;10.73;2.22;;;36.30;28.70;;;;;;4893036;29;20527;-65
2023/05/23 01:22:27;;;;;;;11.77;1.98;;;36.20;28.50;;;;;;4890627;29;20072;-66
2023/05/23 01:25:18;;;;;;;15.95;2.10;;;36.20;28.50;;;;;;4894834;29;20096;-68
2023/05/23 01:27:52;;;;;;;12.07;2.22;;;36.10;28.90;;;;;;4889913;29;20398;-66
2023/05/23 01:30:20;;;;;;;10.80;1.95;;;36.00;28.80;;;;;;4890978;29;20029;-68
2023/05/23 01:32:50;;;;;;;12.18;2.20;;;36.00;29.20;;;;;;4891072;29;21508;-72
2023/05/23 01:35:28;;;;;;;21.48;2.90;;;35.90;29.10;;;;;;4890744;29;20052;-68
2023/05/23 01:37:55;;;;;;;24.52;2.70;;;35.80;29.10;;;;;;4892386;29;20116;-69
2023/05/23 01:40:25;;;;;;;14.05;2.40;;;35.90;29.20;;;;;;4892120;29;20090;-66
2023/05/23 01:42:54;;;;;;;9.88;2.30;;;36.00;28.50;;;;;;4904385;29;20397;-67
2023/05/23 01:45:20;;;;;;;15.45;2.60;;;36.20;28.20;;;;;;4894382;29;20047;-65
2023/05/23 01:47:50;;;;;;;14.43;2.33;;;36.20;28.40;;;;;;4890938;29;20043;-66
2023/05/23 01:50:17;;;;;;;11.05;2.00;;;36.00;28.60;;;;;;4891554;29;20094;-65
2023/05/23 01:52:44;;;;;;;17.48;2.30;;;35.90;28.90;;;;;;4890389;29;20041;-67
2023/05/23 01:55:13;;;;;;;15.93;2.10;;;35.90;28.90;;;;;;4890246;29;20485;-68
2023/05/23 01:57:39;;;;;;;29.63;2.47;;;36.10;28.60;;;;;;4889051;29;20430;-66
2023/05/23 02:00:09;;;;;;;28.77;4.18;;;35.90;28.50;;;;;;4884967;29;20131;-65
2023/05/23 02:02:36;;;;;;;16.42;2.85;;;35.70;28.70;;;;;;4891194;29;20519;-68
2023/05/23 02:05:08;;;;;;;13.65;2.10;;;35.60;29.00;;;;;;4891174;29;20050;-69
2023/05/23 02:07:38;;;;;;;34.25;2.90;;;35.40;28.70;;;;;;4874283;29;20066;-70
2023/05/23 02:10:07;;;;;;;12.82;1.83;;;35.10;28.80;;;;;;4873328;29;20052;-67
2023/05/23 02:12:33;;;;;;;10.65;2.00;;;35.00;28.70;;;;;;4889274;29;20158;-68
2023/05/23 02:15:01;;;;;;;18.02;2.50;;;34.90;28.70;;;;;;4892072;29;20052;-69
2023/05/23 02:17:28;;;;;;;11.93;2.60;;;34.80;28.70;;;;;;4893955;29;20036;-68
2023/05/23 02:19:55;;;;;;;13.95;2.47;;;34.70;28.90;;;;;;4876216;29;20739;-66
2023/05/23 02:22:25;;;;;;;17.35;2.55;;;34.60;28.90;;;;;;4890687;29;20055;-72
2023/05/23 02:24:52;;;;;;;17.48;2.83;;;34.50;28.90;;;;;;4891945;29;20146;-66
2023/05/23 02:27:18;;;;;;;12.05;2.70;;;34.40;28.70;;;;;;4891500;29;20149;-65
2023/05/23 02:29:45;;;;;;;11.73;2.03;;;34.30;28.50;;;;;;4889736;29;20043;-66
2023/05/23 02:32:11;;;;;;;16.70;2.65;;;34.20;28.50;;;;;;4889889;29;20451;-66
2023/05/23 02:34:39;;;;;;;8.93;2.30;;;34.10;28.50;;;;;;4890329;29;20060;-69
2023/05/23 02:37:05;;;;;;;6.35;2.30;;;34.00;28.30;;;;;;4888914;29;20628;-67
2023/05/23 02:39:33;;;;;;;10.73;2.45;;;34.00;28.40;;;;;;4893095;29;20060;-67
2023/05/23 02:42:00;;;;;;;18.95;2.38;;;33.80;28.20;;;;;;4891905;29;20057;-67
2023/05/23 02:44:27;;;;;;;22.48;2.92;;;33.80;28.10;;;;;;4889724;29;20143;-67
2023/05/23 02:46:53;;;;;;;20.02;2.95;;;33.80;28.00;;;;;;4870910;29;20064;-68
2023/05/23 02:49:20;;;;;;;31.75;2.80;;;33.70;28.00;;;;;;4891971;29;20512;-68
2023/05/23 02:51:46;;;;;;;15.05;2.92;;;33.60;27.90;;;;;;4891993;29;20076;-66
2023/05/23 02:54:13;;;;;;;29.65;3.00;;;33.60;27.90;;;;;;4891549;29;20068;-65
2023/05/23 02:56:39;;;;;;;20.90;2.72;;;33.50;27.70;;;;;;4891000;29;20073;-66
2023/05/23 02:59:06;;;;;;;19.13;2.65;;;33.50;28.00;;;;;;4885960;29;20052;-70
2023/05/23 03:01:32;;;;;;;20.42;2.78;;;33.30;27.60;;;;;;4884681;29;20108;-62
2023/05/23 03:03:59;;;;;;;24.42;3.00;;;33.20;27.80;;;;;;4889598;29;20060;-66
2023/05/23 03:06:26;;;;;;;17.00;2.92;;;33.20;28.20;;;;;;4892364;29;20042;-67
2023/05/23 03:08:52;;;;;;;14.57;3.30;;;33.00;27.50;;;;;;4889262;29;20050;-67
2023/05/23 03:11:21;;;;;;;24.73;3.17;;;33.00;27.40;;;;;;4890508;29;20491;-66
2023/05/23 03:13:49;;;;;;;19.10;3.40;;;33.00;27.30;;;;;;4887564;29;20549;-68
2023/05/23 03:16:15;;;;;;;23.35;3.03;;;32.90;27.10;;;;;;4888646;29;20065;-65
2023/05/23 03:18:42;;;;;;;24.80;3.00;;;32.90;27.10;;;;;;4891399;29;20052;-66
2023/05/23 03:21:08;;;;;;;30.33;3.78;;;32.80;27.20;;;;;;4888839;29;20137;-66
2023/05/23 03:23:35;;;;;;;30.77;3.13;;;32.70;27.20;;;;;;4888919;29;20414;-67
2023/05/23 03:26:02;;;;;;;12.38;3.20;;;32.70;27.00;;;;;;4903564;29;20125;-67
2023/05/23 03:28:30;;;;;;;14.75;2.65;;;32.60;27.00;;;;;;4889678;29;20139;-68
2023/05/23 03:30:58;;;;;;;49.72;3.90;;;32.50;27.10;;;;;;4891456;29;20668;-68
2023/05/23 03:33:24;;;;;;;14.32;2.83;;;32.50;27.00;;;;;;4889793;29;20170;-67
2023/05/23 03:35:51;;;;;;;21.58;2.45;;;32.50;27.30;;;;;;4889787;29;20135;-66
2023/05/23 03:38:18;;;;;;;17.77;2.80;;;32.40;27.10;;;;;;4886549;29;20142;-67
2023/05/23 03:40:45;;;;;;;21.80;2.80;;;32.30;27.10;;;;;;4888695;29;20092;-66
2023/05/23 03:43:11;;;;;;;18.02;2.75;;;32.30;27.30;;;;;;4889810;29;20086;-69
2023/05/23 03:45:37;;;;;;;17.13;2.70;;;32.20;27.70;;;;;;4889717;29;20411;-67
2023/05/23 03:48:04;;;;;;;23.88;2.40;;;32.20;27.40;;;;;;4890235;29;20048;-68
2023/05/23 03:50:30;;;;;;;20.40;2.67;;;32.10;27.40;;;;;;4887555;29;20128;-67
2023/05/23 03:52:57;;;;;;;22.77;2.72;;;32.00;27.70;;;;;;4890382;29;20561;-67
2023/05/23 03:55:24;;;;;;;22.45;3.20;;;32.00;28.00;;;;;;4889676;29;20426;-68
2023/05/23 03:57:51;;;;;;;20.45;2.97;;;31.90;28.20;;;;;;4888141;29;20156;-67
2023/05/23 04:00:18;;;;;;;20.17;2.83;;;31.90;28.50;;;;;;4882121;29;20049;-66
2023/05/23 04:02:45;;;;;;;85.88;6.70;;;31.80;28.80;;;;;;4883599;29;20897;-68
2023/05/23 04:05:12;;;;;;;37.22;4.00;;;31.70;29.00;;;;;;4889822;29;20064;-69
2023/05/23 04:07:40;;;;;;;25.52;3.83;;;31.60;29.40;;;;;;4888653;29;20088;-67
2023/05/23 04:10:07;;;;;;;17.77;4.35;;;31.50;29.60;;;;;;4890575;29;20402;-68
2023/05/23 04:12:34;;;;;;;21.17;5.40;;;31.50;30.00;;;;;;4889537;29;20083;-69
2023/05/23 04:15:01;;;;;;;27.33;5.43;;;31.50;30.40;;;;;;4891496;29;20094;-69
2023/05/23 04:17:28;;;;;;;18.35;4.90;;;31.30;30.80;;;;;;4892168;29;20056;-68
2023/05/23 04:19:54;;;;;;;16.13;4.00;;;31.30;31.20;;;;;;4893523;29;20420;-69
2023/05/23 04:22:21;;;;;;;15.18;4.03;;;31.20;31.50;;;;;;4893241;29;20075;-71
2023/05/23 04:24:47;;;;;;;26.13;4.10;;;31.20;31.60;;;;;;4894489;29;20088;-67
2023/05/23 04:27:13;;;;;;;21.38;3.40;;;31.10;31.80;;;;;;4893553;29;20068;-68
2023/05/23 04:29:40;;;;;;;17.70;3.33;;;31.00;31.90;;;;;;4891958;29;20573;-67
2023/05/23 04:32:07;;;;;;;11.52;2.55;;;31.00;31.70;;;;;;4892747;29;20076;-68
2023/05/23 04:34:33;;;;;;;27.63;3.15;;;30.90;31.20;;;;;;4893692;29;20096;-69
2023/05/23 04:37:03;;;;;;;11.05;2.58;;;30.90;31.50;;;;;;4891801;29;20566;-69
2023/05/23 04:39:29;;;;;;;16.60;2.42;;;30.90;31.10;;;;;;4893726;29;20056;-67
2023/05/23 04:41:56;;;;;;;29.52;3.20;;;30.80;31.00;;;;;;4894156;29;20076;-69
2023/05/23 04:44:23;;;;;;;27.15;3.03;;;30.70;31.00;;;;;;4890239;29;20156;-68
2023/05/23 04:46:49;;;;;;;46.65;4.35;;;30.80;31.40;;;;;;4891640;29;20071;-68
2023/05/23 04:49:16;;;;;;;18.55;3.20;;;30.70;31.50;;;;;;4893005;29;20522;-69
2023/05/23 04:51:43;;;;;;;21.85;3.28;;;30.60;31.60;;;;;;4892025;29;20089;-69
2023/05/23 04:54:09;;;;;;;19.50;2.92;;;30.60;31.50;;;;;;4892641;29;20111;-72
2023/05/23 04:56:36;;;;;;;18.83;3.05;;;30.60;31.40;;;;;;4892057;29;20105;-70
2023/05/23 04:59:02;;;;;;;21.33;4.25;;;30.50;31.70;;;;;;4894206;29;20070;-71
2023/05/23 05:01:28;;;;;;;15.82;4.68;;;30.50;32.20;;;;;;4889833;29;20132;-66
2023/05/23 05:03:55;;;;;;;15.23;4.15;;;30.30;32.70;;;;;;4888089;29;20059;-68
2023/05/23 05:06:22;;;;;;;14.57;4.47;;;30.20;33.10;;;;;;4893195;29;20074;-71
2023/05/23 05:08:49;;;;;;;14.65;5.22;;;30.10;33.60;;;;;;4891249;29;20073;-70
2023/05/23 05:11:15;;;;;;;19.08;4.28;;;30.10;34.10;;;;;;4895319;29;20061;-71
2023/05/23 05:13:41;;;;;;;10.70;2.70;;;30.00;34.60;;;;;;4894232;29;20079;-70
2023/05/23 05:16:08;;;;;;;15.57;2.47;;;29.80;34.90;;;;;;4890805;29;20550;-71
2023/05/23 05:18:35;;;;;;;10.30;2.97;;;29.90;35.20;;;;;;4891937;29;20071;-69
2023/05/23 05:21:01;;;;;;;10.68;2.45;;;29.80;35.40;;;;;;4892184;29;20483;-68
2023/05/23 05:23:30;;;;;;;10.27;2.83;;;29.70;35.80;;;;;;4890980;29;20085;-70
2023/05/23 05:25:57;;;;;;;12.88;3.25;;;29.60;35.80;;;;;;4893512;29;20066;-68
2023/05/23 05:28:23;;;;;;;12.68;2.40;;;29.70;36.00;;;;;;4892535;29;20106;-68
2023/05/23 05:30:54;;;;;;;16.67;3.00;;;29.60;36.20;;;;;;4888291;29;20135;-70
2023/05/23 05:33:23;;;;;;;8.75;2.20;;;29.50;36.40;;;;;;4893025;29;20087;-71
2023/05/23 05:35:50;;;;;;;11.65;2.33;;;29.60;36.30;;;;;;4891392;29;20479;-71
2023/05/23 05:38:17;;;;;;;13.15;2.45;;;29.60;36.30;;;;;;4888236;29;20065;-71
2023/05/23 05:40:44;;;;;;;9.40;2.50;;;29.60;36.30;;;;;;4885994;29;20093;-70
2023/05/23 05:43:10;;;;;;;11.85;2.67;;;29.50;36.20;;;;;;4891732;29;20073;-66
2023/05/23 05:45:36;;;;;;;22.63;3.20;;;29.30;36.40;;;;;;4888537;29;20082;-63
2023/05/23 05:48:03;;;;;;;31.58;4.25;;;29.30;37.10;;;;;;4891651;29;20078;-62
2023/05/23 05:50:29;;;;;;;24.98;4.72;;;29.20;38.30;;;;;;4889843;29;20081;-62
2023/05/23 05:52:56;;;;;;;18.13;3.70;;;29.10;36.80;;;;;;4890878;29;20583;-62
2023/05/23 05:55:22;;;;;;;24.23;3.83;;;29.10;36.80;;;;;;4887705;29;20128;-62
2023/05/23 05:57:48;;;;;;;32.88;5.03;;;29.10;36.80;;;;;;4890071;29;20092;-64
2023/05/23 06:00:17;;;;;;;26.33;4.72;;;29.10;36.90;;;;;;4894366;29;20489;-63
2023/05/23 06:02:50;;;;;;;19.95;3.72;;;29.10;36.40;;;;;;4884322;29;20113;-66
2023/05/23 06:05:16;;;;;;;18.00;4.20;;;29.10;36.30;;;;;;4889494;29;20076;-69
2023/05/23 06:07:43;;;;;;;16.73;4.07;;;29.10;36.50;;;;;;4890311;29;20545;-65
2023/05/23 06:10:13;;;;;;;27.17;10.30;;;29.10;36.80;;;;;;4889265;29;20067;-63
2023/05/23 06:12:39;;;;;;;21.63;3.58;;;29.00;37.10;;;;;;4891380;29;20091;-63
2023/05/23 06:15:06;;;;;;;16.27;3.50;;;29.10;37.60;;;;;;4889497;29;20161;-63
2023/05/23 06:17:33;;;;;;;17.45;3.78;;;29.10;37.80;;;;;;4891023;29;20095;-60
2023/05/23 06:19:59;;;;;;;12.52;3.67;;;29.10;38.00;;;;;;4891322;29;20062;-62
2023/05/23 06:22:26;;;;;;;21.98;4.13;;;29.00;38.30;;;;;;4891760;29;20217;-66
2023/05/23 06:24:52;;;;;;;12.13;3.30;;;28.90;38.90;;;;;;4890714;29;20131;-66
2023/05/23 06:27:18;;;;;;;14.32;3.20;;;28.80;40.20;;;;;;4890073;29;20074;-64
2023/05/23 06:29:45;;;;;;;16.88;3.42;;;28.70;41.20;;;;;;4892413;29;20093;-65
2023/05/23 06:32:11;;;;;;;17.92;4.00;;;28.60;41.90;;;;;;4889069;29;20086;-64
2023/05/23 06:34:38;;;;;;;8.27;2.85;;;28.60;42.50;;;;;;4890640;29;20203;-64
2023/05/23 06:37:04;;;;;;;17.52;2.75;;;28.50;43.00;;;;;;4889555;29;20104;-65
2023/05/23 06:39:31;;;;;;;9.32;3.20;;;28.40;44.10;;;;;;4889679;29;20112;-65
2023/05/23 06:41:57;;;;;;;13.20;2.95;;;28.40;45.00;;;;;;4889989;29;20083;-67
2023/05/23 06:44:24;;;;;;;10.20;2.80;;;28.40;45.40;;;;;;4889760;29;20152;-63
2023/05/23 06:46:50;;;;;;;9.00;3.00;;;28.30;46.10;;;;;;4889238;29;20069;-65
2023/05/23 06:49:16;;;;;;;13.13;3.17;;;28.30;46.80;;;;;;4892248;29;20077;-66
2023/05/23 06:51:43;;;;;;;11.70;2.88;;;28.20;47.20;;;;;;4888792;29;21928;-63
2023/05/23 06:54:10;;;;;;;28.92;3.45;;;28.20;48.10;;;;;;4892910;29;20074;-65
2023/05/23 06:56:36;;;;;;;11.85;3.20;;;28.10;48.50;;;;;;4889231;29;20524;-64
2023/05/23 06:59:02;;;;;;;16.10;3.55;;;27.90;49.50;;;;;;4888959;29;20079;-65
2023/05/23 07:01:29;;;;;;;16.20;3.72;;;27.90;50.20;;;;;;4891279;29;20659;-63
2023/05/23 07:03:56;;;;;;;31.27;5.20;;;27.80;50.40;;;;;;4892100;29;20074;-64
2023/05/23 07:06:22;;;;;;;16.30;3.40;;;27.70;51.40;;;;;;4889709;29;20454;-65
2023/05/23 07:08:48;;;;;;;142.30;10.65;;;27.60;51.70;;;;;;4889102;29;20442;-63
2023/05/23 07:11:15;;;;;;;20.55;3.92;;;27.40;52.50;;;;;;4890713;29;20079;-64
2023/05/23 07:13:41;;;;;;;12.15;3.15;;;27.30;53.20;;;;;;4889955;29;20149;-67
2023/05/23 07:16:07;;;;;;;16.90;3.20;;;27.20;54.00;;;;;;4889358;29;20138;-66
2023/05/23 07:18:34;;;;;;;18.20;3.08;;;27.20;54.50;;;;;;4888990;29;20068;-66
2023/05/23 07:21:00;;;;;;;13.90;3.28;;;27.10;55.10;;;;;;4890035;29;20087;-67
2023/05/23 07:23:27;;;;;;;15.52;3.40;;;27.10;55.40;;;;;;4890918;29;20538;-68
2023/05/23 07:25:53;;;;;;;14.27;3.10;;;27.10;55.70;;;;;;4888848;29;20436;-67
2023/05/23 07:28:21;;;;;;;17.95;4.18;;;27.10;55.80;;;;;;4889072;29;20101;-67
2023/05/23 07:30:48;;;;;;;13.10;3.72;;;27.00;56.50;;;;;;4889205;29;20106;-67
2023/05/23 07:33:14;;;;;;;12.85;3.67;;;27.00;57.10;;;;;;4889910;29;20092;-69
2023/05/23 07:35:41;;;;;;;15.23;3.60;;;27.00;56.80;;;;;;4887637;29;20602;-69
2023/05/23 07:38:07;;;;;;;10.88;3.80;;;27.00;57.10;;;;;;4890232;29;20074;-68
2023/05/23 07:40:34;;;;;;;11.65;3.42;;;26.80;58.20;;;;;;4886465;29;20099;-68
2023/05/23 07:43:00;;;;;;;13.07;3.03;;;26.60;59.30;;;;;;4890091;29;20079;-67
2023/05/23 07:45:27;;;;;;;15.98;3.85;;;26.70;59.80;;;;;;4888977;29;20441;-67
2023/05/23 07:47:53;;;;;;;10.43;2.88;;;26.60;60.10;;;;;;4888866;29;20104;-67
2023/05/23 07:50:20;;;;;;;12.45;3.42;;;26.70;60.60;;;;;;4888332;29;20653;-65
2023/05/23 07:52:46;;;;;;;6.97;2.42;;;26.60;61.20;;;;;;4886766;29;20227;-65
2023/05/23 07:55:13;;;;;;;8.93;3.20;;;26.40;62.10;;;;;;4884370;29;20075;-66
2023/05/23 07:57:40;;;;;;;7.78;2.95;;;26.20;63.30;;;;;;4890263;29;20096;-67
2023/05/23 08:00:07;;;;;;;13.77;3.15;;;26.30;63.70;;;;;;4890085;29;20127;-66
2023/05/23 08:02:33;;;;;;;7.82;3.10;;;26.30;64.60;;;;;;4890008;29;20080;-67
2023/05/23 08:05:00;;;;;;;8.90;3.20;;;26.30;64.60;;;;;;4888452;29;20100;-67
2023/05/23 08:07:26;;;;;;;14.73;3.40;;;26.20;65.40;;;;;;4887584;29;20156;-66
2023/05/23 08:09:53;;;;;;;16.30;4.25;;;26.00;66.20;;;;;;4889116;29;20078;-67
2023/05/23 08:12:19;;;;;;;17.50;5.88;;;26.00;66.80;;;;;;4891171;29;20103;-65
2023/05/23 08:14:45;;;;;;;13.70;4.85;;;26.10;67.00;;;;;;4888631;29;20547;-67
2023/05/23 08:17:12;;;;;;;17.73;8.65;;;26.10;68.00;;;;;;4888648;29;20087;-64
2023/05/23 08:19:39;;;;;;;24.23;11.27;;;26.00;68.70;;;;;;4889326;29;20086;-67
2023/05/23 08:22:05;;;;;;;21.02;11.55;;;25.90;69.00;;;;;;4888641;29;20071;-66
2023/05/23 08:24:33;;;;;;;19.45;8.45;;;25.80;69.70;;;;;;4889053;29;20083;-67
2023/05/23 08:26:59;;;;;;;20.77;7.72;;;25.70;71.60;;;;;;4887093;29;20102;-68
2023/05/23 08:29:26;;;;;;;16.15;5.97;;;25.70;72.20;;;;;;4889288;29;20072;-67
2023/05/23 08:31:53;;;;;;;14.07;5.63;;;25.60;73.00;;;;;;4887839;29;20214;-69
2023/05/23 08:34:19;;;;;;;12.52;5.30;;;25.60;73.80;;;;;;4888148;29;20084;-68
2023/05/23 08:36:46;;;;;;;14.93;4.90;;;25.60;75.30;;;;;;4889092;29;20130;-66
2023/05/23 08:39:12;;;;;;;19.88;4.75;;;25.50;75.00;;;;;;4889220;29;20082;-66
2023/05/23 08:41:39;;;;;;;21.05;5.75;;;25.40;75.90;;;;;;4887956;29;20124;-67
2023/05/23 08:44:05;;;;;;;13.40;4.18;;;25.40;77.90;;;;;;4888746;29;20072;-66
2023/05/23 08:46:37;;;;;;;13.45;4.20;;;25.40;78.90;;;;;;4889585;29;20381;-66
2023/05/23 08:49:03;;;;;;;17.73;4.10;;;25.30;78.40;;;;;;4889425;29;20548;-67
2023/05/23 08:51:31;;;;;;;12.35;3.97;;;25.30;80.30;;;;;;4886674;29;20490;-66
2023/05/23 08:53:59;;;;;;;12.32;4.15;;;25.30;80.90;;;;;;4888572;29;20620;-66
2023/05/23 08:56:27;;;;;;;7.55;3.30;;;25.30;81.30;;;;;;4890971;29;20126;-66
2023/05/23 08:58:54;;;;;;;10.95;3.47;;;25.30;82.30;;;;;;4883985;29;20080;-67
2023/05/23 09:01:21;;;;;;;13.95;4.03;;;25.10;83.00;;;;;;4893017;29;20414;-67
2023/05/23 09:03:49;;;;;;;20.75;4.25;;;24.90;83.70;;;;;;4891604;29;20449;-66
2023/05/23 09:06:17;;;;;;;8.35;3.97;;;24.90;85.00;;;;;;4892695;29;20488;-67
2023/05/23 09:08:45;;;;;;;14.00;4.35;;;24.90;85.30;;;;;;4889945;29;20094;-66
2023/05/23 09:11:12;;;;;;;19.75;4.82;;;24.80;86.10;;;;;;4892413;29;20087;-68
2023/05/23 09:13:39;;;;;;;11.93;4.13;;;24.70;86.20;;;;;;4892341;29;20088;-68
2023/05/23 09:16:09;;;;;;;11.55;4.47;;;24.70;88.20;;;;;;4893768;29;20080;-67
2023/05/23 09:18:42;;;;;;;15.68;3.67;;;24.50;87.90;;;;;;4892008;29;20460;-67
2023/05/23 09:21:10;;;;;;;14.38;3.90;;;24.40;89.90;;;;;;4891722;29;20095;-67
2023/05/23 09:23:39;;;;;;;15.45;4.20;;;24.30;90.50;;;;;;4892678;29;20537;-66
2023/05/23 09:26:10;;;;;;;13.38;4.47;;;24.10;91.30;;;;;;4892411;29;20072;-67
2023/05/23 09:28:39;;;;;;;16.85;4.53;;;24.30;91.00;;;;;;4892029;29;20179;-67
2023/05/23 09:31:07;;;;;;;13.50;4.63;;;24.10;91.50;;;;;;4892516;29;20084;-67
2023/05/23 09:33:47;;;;;;;17.85;4.90;;;24.00;91.90;;;;;;4891798;29;20556;-67
2023/05/23 09:36:14;;;;;;;15.00;4.63;;;24.00;92.40;;;;;;4892752;29;20119;-67
2023/05/23 09:38:41;;;;;;;14.88;4.20;;;23.90;92.90;;;;;;4890678;29;20079;-68
2023/05/23 09:41:11;;;;;;;10.05;4.28;;;24.00;93.20;;;;;;4892417;29;20072;-67
2023/05/23 09:43:50;;;;;;;12.00;3.85;;;24.00;93.10;;;;;;4892299;29;20082;-67
2023/05/23 09:46:18;;;;;;;12.50;4.45;;;24.00;93.00;;;;;;4893032;29;20452;-66
2023/05/23 09:48:50;;;;;;;23.50;4.60;;;24.00;93.00;;;;;;4891866;29;20148;-67
2023/05/23 09:51:23;;;;;;;49.28;5.50;;;24.00;92.80;;;;;;4892502;29;20079;-68
2023/05/23 09:53:50;;;;;;;17.52;4.20;;;23.90;92.50;;;;;;4889673;29;20569;-68
2023/05/23 09:56:17;;;;;;;9.48;3.65;;;23.80;93.00;;;;;;4893954;29;20108;-66
2023/05/23 09:58:50;;;;;;;13.25;3.75;;;23.80;93.60;;;;;;4890946;29;20154;-68
2023/05/23 10:01:17;;;;;;;13.23;3.92;;;23.80;93.70;;;;;;4883926;29;20079;-68
2023/05/23 10:03:54;;;;;;;14.02;4.03;;;23.80;93.10;;;;;;4892243;29;20076;-67
2023/05/23 10:06:31;;;;;;;16.33;4.63;;;23.70;92.80;;;;;;4889211;29;20076;-66
2023/05/23 10:09:04;;;;;;;;;;;23.60;92.70;;;;;;4890676;29;20071;-68
2023/05/23 10:11:33;;;;;;;13.15;4.47;;;23.60;92.40;;;;;;4887781;29;19963;-67
2023/05/23 10:14:18;;;;;;;9.75;4.35;;;23.60;91.90;;;;;;4890480;29;20103;-68
2023/05/23 10:16:56;;;;;;;17.85;4.18;;;23.70;91.50;;;;;;4888465;29;20128;-67
2023/05/23 10:19:28;;;;;;;13.63;3.95;;;23.80;91.30;;;;;;4893065;29;20155;-66
2023/05/23 10:22:00;;;;;;;17.42;4.93;;;23.90;90.50;;;;;;4891934;29;20075;-68
2023/05/23 10:24:27;;;;;;;14.38;4.63;;;23.80;89.50;;;;;;4891976;29;20072;-68
2023/05/23 10:26:57;;;;;;;13.90;4.72;;;23.80;88.40;;;;;;4890175;29;20079;-68
2023/05/23 10:29:24;;;;;;;11.02;4.22;;;23.80;87.10;;;;;;4890606;29;20462;-67
2023/05/23 10:31:52;;;;;;;11.00;3.70;;;23.80;86.30;;;;;;4888588;29;20096;-68
2023/05/23 10:34:41;;;;;;;12.95;3.75;;;23.70;82.10;;;;;;4890897;29;20150;-67
2023/05/23 10:37:11;;;;;;;11.70;3.80;;;23.80;79.60;;;;;;4890417;29;20110;-68
2023/05/23 10:39:56;;;;;;;12.23;3.80;;;23.70;78.20;;;;;;4893230;29;20528;-67
2023/05/23 10:42:46;;;;;;;11.52;3.72;;;23.70;77.20;;;;;;4888630;29;20101;-68
2023/05/23 10:45:19;;;;;;;9.95;3.38;;;23.70;75.90;;;;;;4892211;29;20098;-68
2023/05/23 10:47:51;;;;;;;10.82;3.00;;;23.70;72.70;;;;;;4890200;29;20162;-66
2023/05/23 10:50:32;;;;;;;10.50;3.30;;;23.60;71.30;;;;;;4888479;29;20092;-65
2023/05/23 10:53:01;;;;;;;10.73;3.15;;;23.70;70.60;;;;;;4889468;29;20091;-66
2023/05/23 10:55:32;;;;;;;7.55;2.85;;;23.70;69.60;;;;;;4889383;29;20156;-68
2023/05/23 10:58:19;;;;;;;10.50;2.50;;;23.60;68.50;;;;;;4887856;29;20084;-67
2023/05/23 11:01:04;;;;;;;14.85;2.90;;;23.50;66.90;;;;;;4890192;29;20068;-66
2023/05/23 11:03:34;;;;;;;8.55;2.65;;;23.60;66.20;;;;;;4889143;29;20092;-69
2023/05/23 11:06:02;;;;;;;29.58;3.63;;;23.70;66.00;;;;;;4885896;29;20076;-66
2023/05/23 11:08:41;;;;;;;10.25;3.40;;;23.80;65.60;;;;;;4891641;29;20159;-68
2023/05/23 11:11:08;;;;;;;11.55;3.03;;;23.80;65.10;;;;;;4889226;29;20155;-67
2023/05/23 11:14:01;;;;;;;15.35;2.85;;;23.90;63.70;;;;;;4889525;29;20157;-67
2023/05/23 11:16:38;;;;;;;7.45;2.72;;;23.80;63.10;;;;;;4891007;29;20771;-67
2023/05/23 11:19:21;;;;;;;9.38;3.30;;;23.70;62.60;;;;;;4890674;29;20075;-66
2023/05/23 11:21:57;;;;;;;7.57;2.63;;;23.70;62.90;;;;;;4889138;29;20075;-67
2023/05/23 11:24:23;;;;;;;10.13;3.05;;;23.80;62.50;;;;;;4889510;29;20067;-68
2023/05/23 11:26:58;;;;;;;15.57;3.63;;;23.80;61.20;;;;;;4890483;29;20072;-67
2023/05/23 11:29:27;;;;;;;10.35;3.95;;;23.70;61.10;;;;;;4888953;29;20520;-68
2023/05/23 11:31:57;;;;;;;16.52;4.50;;;23.60;60.40;;;;;;4888784;29;20078;-66
2023/05/23 11:34:26;;;;;;;15.05;4.93;;;23.60;59.50;;;;;;4889433;29;20626;-68
2023/05/23 11:36:55;;;;;;;18.70;5.10;;;23.60;59.00;;;;;;4888064;29;20182;-68
2023/05/23 11:39:22;;;;;;;15.60;5.28;;;23.70;58.90;;;;;;4890757;29;20111;-66
2023/05/23 11:42:02;;;;;;;18.05;5.20;;;23.70;58.10;;;;;;4889075;29;20132;-67
2023/05/23 11:44:29;;;;;;;12.88;5.25;;;23.80;58.00;;;;;;4886811;29;20075;-67
2023/05/23 11:47:14;;;;;;;13.77;5.07;;;23.80;57.40;;;;;;4890108;29;20140;-65
2023/05/23 11:49:40;;;;;;;14.52;5.47;;;23.80;56.90;;;;;;4889267;29;20092;-67
2023/05/23 11:52:07;;;;;;;13.82;4.85;;;23.70;56.60;;;;;;4886715;29;20143;-67
2023/05/23 11:54:33;;;;;;;18.83;5.47;;;23.70;56.10;;;;;;4889342;29;20441;-68
2023/05/23 11:57:01;;;;;;;10.70;5.13;;;23.60;55.60;;;;;;4889194;29;20175;-66
2023/05/23 11:59:27;;;;;;;12.90;5.20;;;23.70;55.60;;;;;;4890212;29;20080;-68
2023/05/23 12:01:55;;;;;;;15.00;4.72;;;23.70;55.20;;;;;;4890085;29;20084;-66
2023/05/23 12:04:21;;;;;;;12.55;4.47;;;23.80;54.70;;;;;;4889602;29;20179;-67
2023/05/23 12:06:49;;;;;;;15.98;4.80;;;23.70;54.30;;;;;;4884444;29;20604;-66
2023/05/23 12:09:16;;;;;;;12.23;4.32;;;23.70;54.30;;;;;;4885971;29;20509;-66
2023/05/23 12:11:44;;;;;;;14.13;4.63;;;23.60;53.80;;;;;;4889747;29;20091;-66
2023/05/23 12:14:15;;;;;;;18.13;4.35;;;23.70;53.60;;;;;;4887783;29;20127;-66
2023/05/23 12:16:47;;;;;;;14.48;4.10;;;23.60;53.30;;;;;;4887899;29;20072;-67
2023/05/23 12:19:15;;;;;;;14.25;4.30;;;23.60;53.30;;;;;;4890939;29;20072;-66
2023/05/23 12:21:47;;;;;;;18.98;5.13;;;23.60;53.50;;;;;;4888976;29;20080;-66
2023/05/23 12:24:18;;;;;;;16.48;4.10;;;23.70;53.50;;;;;;4890382;29;20076;-67
2023/05/23 12:26:53;;;;;;;12.18;4.47;;;23.80;53.30;;;;;;4888021;29;20134;-66
2023/05/23 12:29:27;;;;;;;14.95;4.15;;;23.70;52.90;;;;;;4888522;29;20528;-66
2023/05/23 12:31:53;;;;;;;17.90;4.15;;;23.70;52.70;;;;;;4887121;29;20072;-67
2023/05/23 12:34:20;;;;;;;18.75;4.85;;;23.60;52.50;;;;;;4889906;29;20206;-65
2023/05/23 12:36:48;;;;;;;15.45;4.68;;;23.60;52.00;;;;;;4890468;29;20118;-67
2023/05/23 12:39:15;;;;;;;19.98;4.45;;;23.50;52.20;;;;;;4893877;29;20115;-68
2023/05/23 12:41:43;;;;;;;13.63;4.35;;;23.50;52.90;;;;;;4892573;29;20068;-66
2023/05/23 12:44:10;;;;;;;16.42;4.80;;;23.40;53.10;;;;;;4891507;29;20676;-67
2023/05/23 12:46:36;;;;;;;16.20;4.25;;;23.40;53.30;;;;;;4891869;29;20084;-68